createdAt,value
2023-05-23T00:00:56.428Z,19.97
2023-05-23T00:03:09.189Z,20.03
2023-05-23T00:05:19.466Z,20.01
2023-05-23T00:07:29.135Z,20.02
2023-05-23T00:09:38.463Z,20.04
2023-05-23T00:11:48.158Z,20.08
2023-05-23T00:13:57.950Z,20.11
2023-05-23T00:16:09.932Z,20.15
2023-05-23T00:18:31.063Z,20.16
2023-05-23T00:20:41.509Z,20.16
2023-05-23T00:22:50.953Z,20.15
2023-05-23T00:25:03.665Z,20.13
2023-05-23T00:27:13.287Z,20.07
2023-05-23T00:29:22.782Z,20.02
2023-05-23T00:31:33.320Z,19.97
2023-05-23T00:33:52.121Z,19.92
2023-05-23T00:36:04.896Z,19.88
2023-05-23T00:38:14.753Z,19.89
2023-05-23T00:40:26.978Z,19.90
2023-05-23T00:42:36.640Z,19.92
2023-05-23T00:44:46.098Z,19.93
2023-05-23T00:46:57.958Z,19.90
2023-05-23T00:49:11.456Z,19.87
2023-05-23T00:51:22.790Z,19.88
2023-05-23T00:53:32.589Z,19.89
2023-05-23T00:55:42.436Z,19.90
2023-05-23T00:57:52.427Z,19.92
2023-05-23T01:00:02.486Z,19.97
2023-05-23T01:02:15.252Z,20.02
2023-05-23T01:04:27.223Z,20.06
2023-05-23T01:06:37.242Z,20.05
2023-05-23T01:08:46.803Z,20.03
2023-05-23T01:11:04.029Z,20.04
2023-05-23T01:13:23.639Z,20.00
2023-05-23T01:15:43.989Z,19.97
2023-05-23T01:18:00.479Z,19.92
2023-05-23T01:20:13.482Z,19.88
2023-05-23T01:22:34.746Z,19.86
2023-05-23T01:24:53.932Z,19.83
2023-05-23T01:27:26.329Z,19.80
2023-05-23T01:29:40.296Z,19.77
2023-05-23T01:31:51.813Z,19.76
2023-05-23T01:34:02.820Z,19.74
2023-05-23T01:36:23.102Z,19.73
2023-05-23T01:38:34.166Z,19.72
2023-05-23T01:40:43.564Z,19.69
2023-05-23T01:42:53.790Z,19.63
2023-05-23T01:45:03.738Z,19.56
2023-05-23T01:47:14.544Z,19.49
2023-05-23T01:49:25.772Z,19.44
2023-05-23T01:51:34.525Z,19.37
2023-05-23T01:53:45.207Z,19.31
2023-05-23T01:55:55.334Z,19.25
2023-05-23T01:58:06.796Z,19.19
2023-05-23T02:00:17.349Z,19.14
2023-05-23T02:02:28.855Z,19.05
2023-05-23T02:04:38.731Z,19.00
2023-05-23T02:06:48.124Z,18.95
2023-05-23T02:08:57.394Z,18.92
2023-05-23T02:11:08.921Z,18.91
2023-05-23T02:13:21.953Z,18.90
2023-05-23T02:15:31.921Z,18.89
2023-05-23T02:17:41.826Z,18.87
2023-05-23T02:19:51.285Z,18.83
2023-05-23T02:22:01.369Z,18.80
2023-05-23T02:24:10.802Z,18.78
2023-05-23T02:26:23.400Z,18.74
2023-05-23T02:28:32.929Z,18.72
2023-05-23T02:30:42.309Z,18.70
2023-05-23T02:32:53.647Z,18.67
2023-05-23T02:35:03.445Z,18.60
2023-05-23T02:37:16.844Z,18.54
2023-05-23T02:39:26.125Z,18.50
2023-05-23T02:41:39.188Z,18.48
2023-05-23T02:43:52.338Z,18.43
2023-05-23T02:46:02.026Z,18.36
2023-05-23T02:48:12.339Z,18.29
2023-05-23T02:50:41.838Z,18.21
2023-05-23T02:52:52.088Z,18.17
2023-05-23T02:55:10.767Z,18.10
2023-05-23T02:57:25.656Z,18.03
2023-05-23T02:59:46.048Z,17.99
2023-05-23T03:01:55.606Z,17.92
2023-05-23T03:04:09.103Z,17.84
2023-05-23T03:06:22.779Z,17.75
2023-05-23T03:08:32.731Z,17.67
2023-05-23T03:10:42.054Z,17.60
2023-05-23T03:12:54.578Z,17.50
2023-05-23T03:15:04.440Z,17.42
2023-05-23T03:17:17.722Z,17.37
2023-05-23T03:19:27.841Z,17.31
2023-05-23T03:21:37.599Z,17.24
2023-05-23T03:23:53.296Z,17.18
2023-05-23T03:26:03.910Z,17.10
2023-05-23T03:28:17.182Z,17.03
2023-05-23T03:30:30.079Z,16.93
2023-05-23T03:32:39.565Z,16.86
2023-05-23T03:34:58.989Z,16.76
2023-05-23T03:37:08.560Z,16.67
2023-05-23T03:39:18.051Z,16.61
2023-05-23T03:41:27.756Z,16.55
2023-05-23T03:43:40.419Z,16.48
2023-05-23T03:45:49.986Z,16.42
2023-05-23T03:48:03.425Z,16.37
2023-05-23T03:50:22.740Z,16.30
2023-05-23T03:52:32.181Z,16.26
2023-05-23T03:54:43.009Z,16.21
2023-05-23T03:56:53.460Z,16.16
2023-05-23T03:59:06.148Z,16.10
2023-05-23T04:01:16.041Z,16.05
2023-05-23T04:03:26.619Z,16.00
2023-05-23T04:05:45.826Z,15.93
2023-05-23T04:07:55.851Z,15.84
2023-05-23T04:10:06.708Z,15.75
2023-05-23T04:12:25.345Z,15.70
2023-05-23T04:14:35.115Z,15.64
2023-05-23T04:16:45.253Z,15.57
2023-05-23T04:18:55.895Z,15.53
2023-05-23T04:21:09.160Z,15.48
2023-05-23T04:23:23.769Z,15.41
2023-05-23T04:25:36.917Z,15.37
2023-05-23T04:27:54.711Z,15.34
2023-05-23T04:30:14.702Z,15.29
2023-05-23T04:32:27.536Z,15.23
2023-05-23T04:34:41.580Z,15.18
2023-05-23T04:36:51.771Z,15.12
2023-05-23T04:39:04.855Z,15.07
2023-05-23T04:41:16.751Z,15.01
2023-05-23T04:43:44.823Z,14.97
2023-05-23T04:46:07.546Z,14.93
2023-05-23T04:48:21.965Z,14.89
2023-05-23T04:50:33.654Z,14.84
2023-05-23T04:52:43.650Z,14.78
2023-05-23T04:54:54.507Z,14.73
2023-05-23T04:57:04.482Z,14.69
2023-05-23T04:59:18.363Z,14.63
2023-05-23T05:01:28.426Z,14.58
2023-05-23T05:03:42.127Z,14.53
2023-05-23T05:06:12.157Z,14.48
2023-05-23T05:08:21.388Z,14.43
2023-05-23T05:10:31.422Z,14.38
2023-05-23T05:12:41.603Z,14.34
2023-05-23T05:14:53.602Z,14.32
2023-05-23T05:17:03.295Z,14.28
2023-05-23T05:19:20.095Z,14.23
2023-05-23T05:21:29.717Z,14.19
2023-05-23T05:23:39.771Z,14.16
2023-05-23T05:25:51.705Z,14.11
2023-05-23T05:28:03.491Z,14.07
2023-05-23T05:30:24.159Z,14.04
2023-05-23T05:32:38.550Z,14.01
2023-05-23T05:34:49.529Z,13.97
2023-05-23T05:37:00.799Z,13.94
2023-05-23T05:39:10.513Z,13.91
2023-05-23T05:41:19.862Z,13.87
2023-05-23T05:43:31.799Z,13.84
2023-05-23T05:45:41.484Z,13.80
2023-05-23T05:47:51.034Z,13.77
2023-05-23T05:50:02.065Z,13.71
2023-05-23T05:52:12.632Z,13.67
2023-05-23T05:54:22.553Z,13.64
2023-05-23T05:56:32.534Z,13.59
2023-05-23T05:58:46.054Z,13.56
2023-05-23T06:00:55.755Z,13.52
2023-05-23T06:03:08.574Z,13.49
2023-05-23T06:05:41.249Z,13.44
2023-05-23T06:07:51.965Z,13.40
2023-05-23T06:10:01.530Z,13.37
2023-05-23T06:12:11.611Z,13.34
2023-05-23T06:14:20.859Z,13.29
2023-05-23T06:16:30.928Z,13.26
2023-05-23T06:18:44.001Z,13.22
2023-05-23T06:20:53.629Z,13.17
2023-05-23T06:23:05.962Z,13.14
2023-05-23T06:25:15.452Z,13.10
2023-05-23T06:27:27.994Z,13.08
2023-05-23T06:29:37.796Z,13.04
2023-05-23T06:31:50.457Z,13.00
2023-05-23T06:34:02.893Z,12.97
2023-05-23T06:36:12.494Z,12.94
2023-05-23T06:38:22.221Z,12.93
2023-05-23T06:40:32.007Z,12.90
2023-05-23T06:42:42.006Z,12.88
2023-05-23T06:45:00.017Z,12.86
2023-05-23T06:47:10.013Z,12.84
2023-05-23T06:49:20.317Z,12.82
2023-05-23T06:51:32.918Z,12.80
2023-05-23T06:53:42.948Z,12.78
2023-05-23T06:56:01.858Z,12.74
2023-05-23T06:58:15.057Z,12.69
2023-05-23T07:00:28.766Z,12.67
2023-05-23T07:02:45.972Z,12.64
2023-05-23T07:04:55.842Z,12.61
2023-05-23T07:07:26.372Z,12.57
2023-05-23T07:09:52.564Z,12.54
2023-05-23T07:12:02.128Z,12.51
2023-05-23T07:14:17.021Z,12.48
2023-05-23T07:16:29.528Z,12.46
2023-05-23T07:18:43.428Z,12.43
2023-05-23T07:20:52.811Z,12.40
2023-05-23T07:23:12.474Z,12.36
2023-05-23T07:25:23.725Z,12.32
2023-05-23T07:27:33.003Z,12.28
2023-05-23T07:29:42.790Z,12.23
2023-05-23T07:31:53.912Z,12.19
2023-05-23T07:34:03.822Z,12.15
2023-05-23T07:36:19.603Z,12.10
2023-05-23T07:38:30.277Z,12.06
2023-05-23T07:40:58.911Z,12.02
2023-05-23T07:43:16.744Z,11.98
2023-05-23T07:45:26.422Z,11.95
2023-05-23T07:47:36.173Z,11.91
2023-05-23T07:49:46.094Z,11.87
2023-05-23T07:51:58.659Z,11.85
2023-05-23T07:54:11.559Z,11.82
2023-05-23T07:56:23.518Z,11.79
2023-05-23T07:58:32.856Z,11.74
2023-05-23T08:00:45.729Z,11.71
2023-05-23T08:03:01.805Z,11.66
2023-05-23T08:05:15.706Z,11.62
2023-05-23T08:07:25.387Z,11.58
2023-05-23T08:09:40.711Z,11.54
2023-05-23T08:11:50.746Z,11.50
2023-05-23T08:14:11.108Z,11.45
2023-05-23T08:16:29.931Z,11.42
2023-05-23T08:18:40.241Z,11.38
2023-05-23T08:20:49.601Z,11.35
2023-05-23T08:22:59.224Z,11.32
2023-05-23T08:25:09.770Z,11.29
2023-05-23T08:27:21.849Z,11.26
2023-05-23T08:29:35.479Z,11.23
2023-05-23T08:31:55.004Z,11.19
2023-05-23T08:34:04.621Z,11.15
2023-05-23T08:36:14.164Z,11.13
2023-05-23T08:38:25.148Z,11.09
2023-05-23T08:40:53.601Z,11.04
2023-05-23T08:43:04.225Z,11.01
2023-05-23T08:45:14.942Z,10.98
2023-05-23T08:47:28.106Z,10.94
2023-05-23T08:49:42.674Z,10.91
2023-05-23T08:51:58.853Z,10.88
2023-05-23T08:54:13.506Z,10.85
2023-05-23T08:56:24.775Z,10.82
2023-05-23T08:58:35.899Z,10.79
2023-05-23T09:00:46.622Z,10.76
2023-05-23T09:03:00.786Z,10.73
2023-05-23T09:05:31.720Z,10.69
2023-05-23T09:07:41.053Z,10.65
2023-05-23T09:09:51.337Z,10.62
2023-05-23T09:12:05.376Z,10.58
2023-05-23T09:14:18.381Z,10.55
2023-05-23T09:16:33.955Z,10.53
2023-05-23T09:18:47.143Z,10.51
2023-05-23T09:20:57.971Z,10.47
2023-05-23T09:23:10.011Z,10.43
2023-05-23T09:25:22.115Z,10.42
2023-05-23T09:27:36.504Z,10.40
2023-05-23T09:29:47.765Z,10.37
2023-05-23T09:32:12.126Z,10.35
2023-05-23T09:34:24.852Z,10.32
2023-05-23T09:36:48.991Z,10.30
2023-05-23T09:39:00.087Z,10.27
2023-05-23T09:41:13.983Z,10.25
2023-05-23T09:43:25.882Z,10.24
2023-05-23T09:45:35.648Z,10.22
2023-05-23T09:47:53.459Z,10.21
2023-05-23T09:50:02.951Z,10.18
2023-05-23T09:52:12.959Z,10.16
2023-05-23T09:54:22.364Z,10.15
2023-05-23T09:56:31.947Z,10.12
2023-05-23T09:58:45.749Z,10.09
2023-05-23T10:03:36.893Z,9.96
2023-05-23T10:06:12.537Z,9.95
2023-05-23T10:08:30.301Z,9.91
2023-05-23T10:11:07.945Z,9.89
2023-05-23T10:13:30.182Z,9.87
2023-05-23T10:15:44.555Z,9.83
2023-05-23T10:18:13.035Z,9.81
2023-05-23T10:20:27.028Z,9.80
2023-05-23T10:22:40.837Z,9.79
2023-05-23T10:24:50.550Z,9.77
2023-05-23T10:27:00.108Z,9.75
2023-05-23T10:29:10.644Z,9.71
2023-05-23T10:31:22.431Z,9.65
2023-05-23T10:33:34.828Z,9.59
2023-05-23T10:35:54.245Z,9.56
2023-05-23T10:38:10.574Z,9.53
2023-05-23T10:40:30.406Z,9.50
2023-05-23T10:42:57.904Z,9.46
2023-05-23T10:45:21.769Z,9.43
2023-05-23T10:47:31.852Z,9.40
2023-05-23T10:49:46.423Z,9.37
2023-05-23T10:51:56.337Z,9.33
2023-05-23T10:54:12.435Z,9.28
2023-05-23T10:56:41.999Z,9.25
2023-05-23T10:59:21.480Z,9.21
2023-05-23T11:01:30.874Z,9.17
2023-05-23T11:03:54.006Z,9.14
2023-05-23T11:06:06.069Z,9.10
2023-05-23T11:08:18.128Z,9.07
2023-05-23T11:10:27.754Z,9.04
2023-05-23T11:12:45.217Z,8.99
2023-05-23T11:14:58.325Z,8.94
2023-05-23T11:17:19.901Z,8.90
2023-05-23T11:19:38.682Z,8.85
2023-05-23T11:22:10.239Z,8.83
2023-05-23T11:24:19.436Z,8.82
2023-05-23T11:26:35.621Z,8.82
2023-05-23T11:29:01.791Z,8.81
2023-05-23T11:31:11.994Z,8.82
2023-05-23T11:33:21.696Z,8.81
2023-05-23T11:35:34.494Z,8.82
2023-05-23T11:37:45.312Z,8.82
2023-05-23T11:39:54.519Z,8.81
2023-05-23T11:42:07.992Z,8.82
2023-05-23T11:44:20.639Z,8.84
2023-05-23T11:46:30.564Z,8.87
2023-05-23T11:48:46.189Z,8.90
2023-05-23T11:50:58.599Z,8.92
2023-05-23T11:53:08.669Z,8.93
2023-05-23T11:55:18.507Z,8.96
2023-05-23T11:57:28.326Z,8.98
2023-05-23T11:59:38.183Z,9.00
2023-05-23T12:01:47.705Z,9.03
2023-05-23T12:04:00.481Z,9.05
2023-05-23T12:06:12.730Z,9.05
2023-05-23T12:08:23.495Z,9.06
2023-05-23T12:10:32.861Z,9.05
2023-05-23T12:12:44.272Z,9.05
2023-05-23T12:14:59.558Z,9.05
2023-05-23T12:17:21.662Z,9.07
2023-05-23T12:19:31.433Z,9.07
2023-05-23T12:21:48.254Z,9.07
2023-05-23T12:24:01.747Z,9.08
2023-05-23T12:26:11.715Z,9.07
2023-05-23T12:28:36.046Z,9.07
2023-05-23T12:31:13.108Z,9.05
2023-05-23T12:33:23.831Z,9.06
2023-05-23T12:35:33.156Z,9.06
2023-05-23T12:37:52.137Z,9.06
2023-05-23T12:40:14.610Z,9.05
2023-05-23T12:42:23.996Z,9.05
2023-05-23T12:44:35.486Z,9.06
2023-05-23T12:46:44.997Z,9.09
2023-05-23T12:48:55.297Z,9.11
2023-05-23T12:51:05.399Z,9.12
2023-05-23T12:53:15.018Z,9.13
2023-05-23T12:55:24.809Z,9.14
2023-05-23T12:57:38.452Z,9.15
2023-05-23T13:00:10.350Z,9.17
2023-05-23T13:02:20.150Z,9.18
2023-05-23T13:04:41.153Z,9.20
2023-05-23T13:06:50.258Z,9.21
2023-05-23T13:08:59.709Z,9.24
2023-05-23T13:11:09.559Z,9.28
2023-05-23T13:13:18.901Z,9.31
2023-05-23T13:15:29.648Z,9.34
2023-05-23T13:17:44.406Z,9.37
2023-05-23T13:20:01.457Z,9.41
2023-05-23T13:22:11.899Z,9.44
2023-05-23T13:24:24.272Z,9.47
2023-05-23T13:26:37.117Z,9.50
2023-05-23T13:28:49.805Z,9.52
2023-05-23T13:30:58.966Z,9.54
2023-05-23T13:33:08.497Z,9.57
2023-05-23T13:35:17.914Z,9.60
2023-05-23T13:37:27.296Z,9.63
2023-05-23T13:39:40.008Z,9.67
2023-05-23T13:41:49.386Z,9.71
2023-05-23T13:44:02.242Z,9.75
2023-05-23T13:46:11.906Z,9.79
2023-05-23T13:48:21.488Z,9.83
2023-05-23T13:50:30.962Z,9.85
2023-05-23T13:53:00.324Z,9.90
2023-05-23T13:55:11.494Z,9.94
2023-05-23T13:57:20.956Z,9.99
2023-05-23T13:59:30.438Z,10.03
2023-05-23T14:01:39.854Z,10.08
2023-05-23T14:03:49.244Z,10.12
2023-05-23T14:05:58.929Z,10.17
2023-05-23T14:08:13.786Z,10.22
2023-05-23T14:10:21.450Z,10.27
2023-05-23T14:12:30.885Z,10.33
2023-05-23T14:14:40.191Z,10.41
2023-05-23T14:16:54.617Z,10.50
2023-05-23T14:19:04.078Z,10.60
2023-05-23T14:21:13.576Z,10.71
2023-05-23T14:23:43.252Z,10.80
2023-05-23T14:26:12.596Z,10.86
2023-05-23T14:28:24.887Z,10.93
2023-05-23T14:30:50.628Z,11.00
2023-05-23T14:33:11.270Z,11.05
2023-05-23T14:35:22.777Z,11.09
2023-05-23T14:37:35.131Z,11.11
2023-05-23T14:39:44.683Z,11.12
2023-05-23T14:42:05.235Z,11.12
2023-05-23T14:44:14.719Z,11.14
2023-05-23T14:46:24.061Z,11.17
2023-05-23T14:48:47.829Z,11.21
2023-05-23T14:51:02.269Z,11.27
2023-05-23T14:53:31.610Z,11.27
2023-05-23T14:55:44.444Z,11.27
2023-05-23T14:57:54.662Z,11.27
2023-05-23T15:00:06.137Z,11.25
2023-05-23T15:02:24.860Z,11.21
2023-05-23T15:04:34.499Z,11.18
2023-05-23T15:06:44.439Z,11.19
2023-05-23T15:08:57.203Z,11.26
2023-05-23T15:11:07.301Z,11.32
2023-05-23T15:13:19.712Z,11.36
2023-05-23T15:15:38.181Z,11.42
2023-05-23T15:17:51.299Z,11.47
2023-05-23T15:20:02.291Z,11.50
2023-05-23T15:22:29.845Z,11.56
2023-05-23T15:24:51.312Z,11.66
2023-05-23T15:27:22.566Z,11.77
2023-05-23T15:29:33.677Z,11.84
2023-05-23T15:31:45.929Z,11.88
2023-05-23T15:34:15.823Z,11.98
2023-05-23T15:36:25.288Z,12.05
2023-05-23T15:38:34.643Z,12.09
2023-05-23T15:40:44.380Z,12.15
2023-05-23T15:43:03.100Z,12.20
2023-05-23T15:45:14.300Z,12.27
2023-05-23T15:47:43.975Z,12.33
2023-05-23T15:49:56.217Z,12.38
2023-05-23T15:52:16.048Z,12.45
2023-05-23T15:54:25.442Z,12.52
2023-05-23T15:56:34.562Z,12.65
2023-05-23T15:58:43.927Z,12.75
2023-05-23T16:01:03.356Z,12.84
2023-05-23T16:03:13.462Z,12.91
2023-05-23T16:05:33.605Z,13.00
2023-05-23T16:07:52.070Z,13.08
2023-05-23T16:10:14.108Z,13.10
2023-05-23T16:12:23.829Z,13.15
2023-05-23T16:14:33.760Z,13.19
2023-05-23T16:16:44.022Z,13.22
2023-05-23T16:18:53.692Z,13.22
2023-05-23T16:21:06.249Z,13.27
2023-05-23T16:23:26.163Z,13.39
2023-05-23T16:25:35.599Z,13.48
2023-05-23T16:27:50.797Z,13.60
2023-05-23T16:30:00.428Z,13.71
2023-05-23T16:32:13.541Z,13.81
2023-05-23T16:34:22.902Z,13.93
2023-05-23T16:36:43.968Z,14.01
2023-05-23T16:39:02.873Z,14.05
2023-05-23T16:41:12.525Z,14.10
2023-05-23T16:43:24.888Z,14.13
2023-05-23T16:45:34.253Z,14.14
2023-05-23T16:47:44.038Z,14.16
2023-05-23T16:49:53.213Z,14.20
2023-05-23T16:52:05.467Z,14.23
2023-05-23T16:54:15.396Z,14.28
2023-05-23T16:56:24.816Z,14.31
2023-05-23T16:58:36.359Z,14.30
2023-05-23T17:00:45.909Z,14.27
2023-05-23T17:02:55.435Z,14.26
2023-05-23T17:05:16.337Z,14.25
2023-05-23T17:07:25.568Z,14.24
2023-05-23T17:09:39.367Z,14.20
2023-05-23T17:11:51.736Z,14.15
2023-05-23T17:14:01.256Z,14.14
2023-05-23T17:16:14.164Z,14.13
2023-05-23T17:18:23.741Z,14.12
2023-05-23T17:20:43.955Z,14.11
2023-05-23T17:23:13.474Z,14.09
2023-05-23T17:25:27.475Z,14.07
2023-05-23T17:27:38.133Z,14.06
2023-05-23T17:29:47.718Z,14.06
2023-05-23T17:31:57.102Z,14.07
2023-05-23T17:34:18.254Z,14.09
2023-05-23T17:36:27.404Z,14.12
2023-05-23T17:38:56.751Z,14.13
2023-05-23T17:41:27.124Z,14.17
2023-05-23T17:43:47.560Z,14.20
2023-05-23T17:46:00.439Z,14.25
2023-05-23T17:48:12.924Z,14.29
2023-05-23T17:50:23.450Z,14.34
2023-05-23T17:52:43.035Z,14.41
2023-05-23T17:54:52.567Z,14.48
2023-05-23T17:57:12.411Z,14.56
2023-05-23T17:59:21.936Z,14.67
2023-05-23T18:01:31.871Z,14.75
2023-05-23T18:03:45.207Z,14.84
2023-05-23T18:06:07.645Z,14.94
2023-05-23T18:08:20.309Z,15.03
2023-05-23T18:10:49.797Z,15.09
2023-05-23T18:13:04.949Z,15.10
2023-05-23T18:15:34.343Z,15.10
2023-05-23T18:17:43.998Z,15.09
2023-05-23T18:20:14.359Z,15.01
2023-05-23T18:22:43.734Z,15.00
2023-05-23T18:24:56.345Z,14.99
2023-05-23T18:27:26.348Z,14.99
2023-05-23T18:29:38.890Z,14.99
2023-05-23T18:31:57.178Z,14.98
2023-05-23T18:34:12.345Z,14.97
2023-05-23T18:36:33.388Z,14.96
2023-05-23T18:38:46.606Z,14.93
2023-05-23T18:40:55.862Z,14.91
2023-05-23T18:43:26.189Z,14.83
2023-05-23T18:45:37.123Z,14.81
2023-05-23T18:47:56.457Z,14.80
2023-05-23T18:50:10.728Z,14.81
2023-05-23T18:52:31.057Z,14.85
2023-05-23T18:54:53.860Z,14.87
2023-05-23T18:57:03.601Z,14.87
2023-05-23T18:59:16.124Z,14.89
2023-05-23T19:01:25.587Z,14.92
2023-05-23T19:03:37.463Z,14.93
2023-05-23T19:05:50.720Z,14.94
2023-05-23T19:08:03.753Z,14.97
2023-05-23T19:10:14.397Z,14.99
2023-05-23T19:12:24.029Z,15.00
2023-05-23T19:14:38.706Z,14.99
2023-05-23T19:17:00.638Z,14.99
2023-05-23T19:19:39.664Z,14.99
2023-05-23T19:21:49.222Z,15.07
2023-05-23T19:23:58.619Z,15.14
2023-05-23T19:26:08.376Z,15.15
2023-05-23T19:28:21.070Z,15.19
2023-05-23T19:30:30.598Z,15.21
2023-05-23T19:32:40.091Z,15.25
2023-05-23T19:34:49.790Z,15.29
2023-05-23T19:37:01.051Z,15.33
2023-05-23T19:39:10.309Z,15.40
2023-05-23T19:41:20.330Z,15.42
2023-05-23T19:43:29.685Z,15.40
2023-05-23T19:45:39.102Z,15.40
2023-05-23T19:47:48.516Z,15.42
2023-05-23T19:49:58.035Z,15.48
2023-05-23T19:52:08.053Z,15.54
2023-05-23T19:54:17.527Z,15.60
2023-05-23T19:56:27.686Z,15.65
2023-05-23T19:58:37.200Z,15.68
2023-05-23T20:00:57.678Z,15.72
2023-05-23T20:03:07.204Z,15.77
2023-05-23T20:05:17.689Z,15.85
2023-05-23T20:07:27.207Z,15.90
2023-05-23T20:09:36.747Z,15.94
2023-05-23T20:11:49.556Z,16.00
2023-05-23T20:13:58.817Z,16.08
2023-05-23T20:16:09.334Z,16.13
2023-05-23T20:18:19.101Z,16.20
2023-05-23T20:20:28.767Z,16.36
2023-05-23T20:22:38.084Z,16.51
2023-05-23T20:24:48.113Z,16.69
2023-05-23T20:27:01.302Z,16.90
2023-05-23T20:29:10.597Z,17.04
2023-05-23T20:31:21.362Z,17.09
2023-05-23T20:33:40.753Z,17.10
2023-05-23T20:35:50.601Z,17.11
2023-05-23T20:37:59.895Z,17.13
2023-05-23T20:40:11.258Z,17.12
2023-05-23T20:42:21.126Z,17.14
2023-05-23T20:44:30.556Z,17.21
2023-05-23T20:46:43.969Z,17.27
2023-05-23T20:48:57.798Z,17.24
2023-05-23T20:51:07.958Z,17.18
2023-05-23T20:53:17.370Z,17.13
2023-05-23T20:55:28.970Z,17.14
2023-05-23T20:57:37.416Z,17.17
2023-05-23T20:59:46.830Z,17.21
2023-05-23T21:01:56.600Z,17.25
2023-05-23T21:04:06.332Z,17.28
2023-05-23T21:06:15.725Z,17.31
2023-05-23T21:08:25.339Z,17.35
2023-05-23T21:10:34.599Z,17.39
2023-05-23T21:12:49.576Z,17.44
2023-05-23T21:14:59.172Z,17.49
2023-05-23T21:17:08.945Z,17.50
2023-05-23T21:19:18.686Z,17.55
2023-05-23T21:21:28.280Z,17.60
2023-05-23T21:23:38.205Z,17.70
2023-05-23T21:25:47.657Z,17.82
2023-05-23T21:27:57.062Z,17.92
2023-05-23T21:30:06.899Z,18.00
2023-05-23T21:32:16.868Z,18.02
2023-05-23T21:34:26.257Z,18.02
2023-05-23T21:36:35.544Z,18.06
2023-05-23T21:38:44.935Z,18.10
2023-05-23T21:40:54.715Z,18.14
2023-05-23T21:43:04.491Z,18.22
2023-05-23T21:45:17.226Z,18.29
2023-05-23T21:47:26.606Z,18.33
2023-05-23T21:49:35.961Z,18.35
2023-05-23T21:51:45.232Z,18.40
2023-05-23T21:53:54.798Z,18.45
2023-05-23T21:56:04.186Z,18.50
2023-05-23T21:58:13.241Z,18.54
2023-05-23T22:00:24.200Z,18.56
2023-05-23T22:02:34.588Z,18.58
2023-05-23T22:04:45.262Z,18.62
2023-05-23T22:06:54.677Z,18.65
2023-05-23T22:09:04.025Z,18.72
2023-05-23T22:11:13.234Z,18.81
2023-05-23T22:13:22.550Z,18.89
2023-05-23T22:15:32.835Z,18.95
2023-05-23T22:17:43.891Z,19.05
2023-05-23T22:19:53.444Z,19.19
2023-05-23T22:22:02.960Z,19.32
2023-05-23T22:24:12.364Z,19.40
2023-05-23T22:26:22.280Z,19.43
2023-05-23T22:28:35.920Z,19.45
2023-05-23T22:30:45.238Z,19.52
2023-05-23T22:32:58.180Z,19.59
2023-05-23T22:35:08.113Z,19.61
2023-05-23T22:37:20.859Z,19.62
2023-05-23T22:39:30.286Z,19.64
2023-05-23T22:41:39.568Z,19.65
2023-05-23T22:43:49.077Z,19.66
2023-05-23T22:45:58.635Z,19.65
2023-05-23T22:48:18.711Z,19.71
2023-05-23T22:50:27.976Z,19.72
2023-05-23T22:52:40.752Z,19.74
2023-05-23T22:54:54.382Z,19.79
2023-05-23T22:57:03.973Z,19.83
2023-05-23T22:59:13.218Z,19.82
2023-05-23T23:01:22.697Z,19.81
2023-05-23T23:03:32.593Z,19.83
2023-05-23T23:05:42.414Z,19.86
2023-05-23T23:07:52.099Z,19.88
2023-05-23T23:10:05.543Z,19.90
2023-05-23T23:12:14.869Z,19.90
2023-05-23T23:14:27.720Z,19.89
2023-05-23T23:16:40.039Z,19.87
2023-05-23T23:18:59.546Z,19.86
2023-05-23T23:21:11.843Z,19.88
2023-05-23T23:23:24.638Z,19.93
2023-05-23T23:25:33.922Z,20.02
2023-05-23T23:27:46.514Z,20.10
2023-05-23T23:29:56.355Z,20.15
2023-05-23T23:32:05.781Z,20.21
2023-05-23T23:34:15.395Z,20.23
2023-05-23T23:36:24.716Z,20.24
2023-05-23T23:38:34.289Z,20.22
2023-05-23T23:40:45.869Z,20.20
2023-05-23T23:42:53.402Z,20.16
2023-05-23T23:45:03.033Z,20.15
2023-05-23T23:47:12.920Z,20.13
2023-05-23T23:49:22.365Z,20.10
2023-05-23T23:51:32.534Z,20.07
2023-05-23T23:53:42.139Z,20.02
2023-05-23T23:55:52.199Z,19.98
2023-05-23T23:58:01.553Z,19.93
